createdAt,value
2023-11-02T00:00:36.019Z,5.05
2023-11-02T00:03:04.187Z,4.78
2023-11-02T00:05:56.442Z,4.60
2023-11-02T00:08:31.227Z,4.85
2023-11-02T00:10:59.139Z,4.65
2023-11-02T00:13:31.196Z,4.57
2023-11-02T00:15:58.375Z,4.28
2023-11-02T00:18:32.601Z,4.82
2023-11-02T00:21:00.155Z,4.07
2023-11-02T00:23:33.351Z,4.18
2023-11-02T00:26:00.372Z,4.25
2023-11-02T00:28:27.622Z,4.45
2023-11-02T00:30:54.767Z,4.88
2023-11-02T00:33:22.568Z,5.93
2023-11-02T00:35:52.421Z,5.05
2023-11-02T00:38:23.712Z,4.63
2023-11-02T00:40:52.329Z,4.40
2023-11-02T00:43:20.031Z,4.32
2023-11-02T00:45:47.542Z,4.53
2023-11-02T00:48:35.848Z,5.28
2023-11-02T00:51:28.792Z,4.03
2023-11-02T00:54:01.605Z,4.45
2023-11-02T00:56:40.106Z,4.75
2023-11-02T00:59:07.292Z,4.50
2023-11-02T01:01:34.769Z,4.20
2023-11-02T01:04:06.894Z,4.72
2023-11-02T01:06:36.862Z,3.50
2023-11-02T01:09:16.177Z,4.32
2023-11-02T01:11:43.583Z,4.88
2023-11-02T01:14:47.950Z,4.80
2023-11-02T01:17:37.517Z,4.82
2023-11-02T01:20:13.000Z,4.38
2023-11-02T01:22:54.924Z,4.07
2023-11-02T01:25:26.684Z,4.57
2023-11-02T01:28:02.178Z,3.75
2023-11-02T01:30:38.600Z,4.20
2023-11-02T01:33:28.989Z,4.30
2023-11-02T01:35:57.056Z,3.90
2023-11-02T01:38:27.444Z,4.50
2023-11-02T01:40:54.593Z,4.35
2023-11-02T01:43:29.476Z,4.05
2023-11-02T01:46:00.001Z,4.55
2023-11-02T01:48:36.183Z,4.22
2023-11-02T01:51:10.150Z,4.20
2023-11-02T01:53:41.378Z,4.05
2023-11-02T01:56:14.244Z,5.03
2023-11-02T01:58:47.355Z,4.38
2023-11-02T02:01:26.884Z,4.03
2023-11-02T02:04:05.518Z,4.38
2023-11-02T02:06:53.696Z,5.68
2023-11-02T02:09:29.923Z,4.40
2023-11-02T02:12:14.221Z,4.63
2023-11-02T02:15:04.146Z,4.85
2023-11-02T02:17:55.484Z,4.35
2023-11-02T02:20:31.860Z,4.35
2023-11-02T02:30:07.678Z,3.75
2023-11-02T02:32:54.023Z,4.72
2023-11-02T02:35:37.027Z,3.85
2023-11-02T02:38:19.539Z,4.07
2023-11-02T02:41:00.190Z,3.50
2023-11-02T02:43:30.153Z,3.67
2023-11-02T02:45:58.520Z,3.80
2023-11-02T02:48:28.057Z,3.22
2023-11-02T02:50:59.149Z,3.35
2023-11-02T02:53:32.387Z,4.78
2023-11-02T02:56:24.922Z,3.58
2023-11-02T02:59:07.718Z,3.20
2023-11-02T03:01:39.494Z,3.72
2023-11-02T03:04:11.562Z,3.20
2023-11-02T03:06:46.433Z,3.45
2023-11-02T03:09:20.835Z,4.07
2023-11-02T03:11:51.378Z,3.58
2023-11-02T03:14:20.482Z,3.83
2023-11-02T03:16:50.553Z,3.58
2023-11-02T03:19:50.014Z,3.35
2023-11-02T03:22:25.109Z,3.83
2023-11-02T03:25:35.138Z,3.92
2023-11-02T03:28:31.889Z,4.70
2023-11-02T03:30:59.355Z,4.18
2023-11-02T03:33:48.658Z,4.80
2023-11-02T03:36:23.677Z,3.45
2023-11-02T03:39:36.117Z,3.47
2023-11-02T03:42:31.551Z,4.30
2023-11-02T03:45:23.015Z,3.30
2023-11-02T03:48:16.609Z,3.33
2023-11-02T03:50:50.681Z,3.25
2023-11-02T03:53:27.041Z,2.85
2023-11-02T03:56:21.140Z,3.13
2023-11-02T03:59:36.126Z,2.30
2023-11-02T04:02:08.871Z,2.97
2023-11-02T04:04:52.447Z,3.08
2023-11-02T04:07:41.167Z,2.50
2023-11-02T04:10:13.346Z,2.90
2023-11-02T04:13:09.089Z,3.55
2023-11-02T04:15:36.698Z,3.40
2023-11-02T04:18:04.551Z,2.78
2023-11-02T04:20:31.868Z,2.83
2023-11-02T04:22:59.406Z,3.03
2023-11-02T04:25:26.675Z,3.08
2023-11-02T04:27:54.081Z,3.42
2023-11-02T04:30:21.513Z,2.25
2023-11-02T04:32:49.067Z,2.50
2023-11-02T04:35:16.363Z,2.15
2023-11-02T04:37:44.007Z,2.47
2023-11-02T04:40:12.624Z,2.50
2023-11-02T04:42:39.973Z,2.78
2023-11-02T04:45:07.854Z,2.25
2023-11-02T04:47:35.051Z,2.90
2023-11-02T04:50:02.158Z,2.85
2023-11-02T04:52:37.034Z,2.22
2023-11-02T04:55:04.469Z,3.45
2023-11-02T04:57:31.628Z,3.35
2023-11-02T05:00:02.004Z,3.20
2023-11-02T05:02:29.422Z,2.80
2023-11-02T05:04:56.731Z,3.45
2023-11-02T05:07:24.029Z,3.28
2023-11-02T05:09:51.198Z,2.85
2023-11-02T05:12:19.002Z,3.13
2023-11-02T05:14:46.352Z,2.95
2023-11-02T05:17:16.017Z,2.58
2023-11-02T05:19:44.458Z,3.05
2023-11-02T05:22:11.578Z,3.30
2023-11-02T05:24:38.690Z,3.80
2023-11-02T05:27:06.096Z,3.92
2023-11-02T05:29:33.158Z,3.92
2023-11-02T05:32:00.833Z,3.85
2023-11-02T05:34:28.205Z,4.38
2023-11-02T05:37:05.805Z,5.30
2023-11-02T05:39:34.170Z,4.65
2023-11-02T05:42:03.381Z,5.13
2023-11-02T05:44:31.375Z,4.28
2023-11-02T05:46:58.755Z,5.55
2023-11-02T05:49:26.438Z,4.97
2023-11-02T05:51:58.902Z,5.05
2023-11-02T05:54:26.145Z,5.80
2023-11-02T05:56:53.308Z,4.88
2023-11-02T05:59:20.477Z,5.30
2023-11-02T06:01:47.619Z,5.20
2023-11-02T06:04:14.828Z,4.65
2023-11-02T06:06:41.895Z,3.75
2023-11-02T06:09:09.191Z,5.15
2023-11-02T06:11:37.367Z,4.45
2023-11-02T06:14:05.191Z,4.60
2023-11-02T06:16:32.335Z,4.13
2023-11-02T06:19:00.243Z,4.15
2023-11-02T06:21:27.515Z,4.63
2023-11-02T06:23:54.655Z,4.78
2023-11-02T06:26:22.311Z,4.35
2023-11-02T06:28:49.933Z,4.22
2023-11-02T06:31:17.296Z,3.78
2023-11-02T06:33:47.778Z,4.60
2023-11-02T06:36:15.064Z,4.63
2023-11-02T06:38:42.884Z,4.25
2023-11-02T06:41:12.094Z,4.53
2023-11-02T06:43:43.385Z,4.25
2023-11-02T06:46:10.538Z,4.53
2023-11-02T06:48:37.824Z,5.05
2023-11-02T06:51:06.267Z,3.42
2023-11-02T06:53:33.386Z,3.40
2023-11-02T06:56:03.548Z,3.60
2023-11-02T06:58:32.478Z,3.05
2023-11-02T07:01:03.338Z,2.83
2023-11-02T07:03:30.739Z,3.92
2023-11-02T07:05:59.200Z,2.80
2023-11-02T07:08:27.188Z,2.95
2023-11-02T07:10:54.509Z,3.25
2023-11-02T07:13:21.880Z,3.03
2023-11-02T07:15:49.844Z,3.33
2023-11-02T07:18:17.387Z,2.53
2023-11-02T07:20:44.465Z,2.67
2023-11-02T07:23:13.711Z,2.58
2023-11-02T07:25:41.217Z,2.22
2023-11-02T07:28:08.365Z,2.92
2023-11-02T07:30:35.958Z,2.72
2023-11-02T07:33:03.303Z,3.20
2023-11-02T07:35:32.942Z,2.65
2023-11-02T07:38:00.152Z,2.67
2023-11-02T07:40:27.961Z,2.58
2023-11-02T07:42:55.232Z,2.83
2023-11-02T07:45:24.662Z,2.78
2023-11-02T07:47:51.974Z,3.50
2023-11-02T07:50:20.436Z,2.90
2023-11-02T07:52:48.931Z,2.42
2023-11-02T07:55:16.408Z,2.40
2023-11-02T07:57:44.401Z,2.80
2023-11-02T08:00:12.198Z,2.67
2023-11-02T08:02:42.744Z,2.47
2023-11-02T08:05:12.783Z,2.47
2023-11-02T08:07:39.980Z,2.00
2023-11-02T08:10:07.978Z,2.58
2023-11-02T08:12:35.267Z,2.13
2023-11-02T08:15:02.457Z,2.42
2023-11-02T08:17:30.471Z,2.53
2023-11-02T08:19:59.345Z,2.40
2023-11-02T08:22:26.768Z,2.30
2023-11-02T08:24:54.050Z,2.60
2023-11-02T08:27:21.431Z,2.83
2023-11-02T08:29:49.174Z,1.67
2023-11-02T08:32:16.259Z,2.33
2023-11-02T08:34:44.442Z,2.05
2023-11-02T08:37:12.608Z,2.45
2023-11-02T08:39:43.040Z,2.22
2023-11-02T08:42:10.471Z,2.15
2023-11-02T08:44:46.489Z,2.45
2023-11-02T08:47:14.270Z,2.60
2023-11-02T08:49:42.463Z,2.63
2023-11-02T08:52:09.965Z,2.40
2023-11-02T08:54:37.969Z,2.20
2023-11-02T08:57:18.077Z,2.80
2023-11-02T08:59:46.446Z,1.80
2023-11-02T09:02:14.576Z,2.67
2023-11-02T09:04:42.103Z,2.72
2023-11-02T09:07:10.014Z,2.95
2023-11-02T09:09:37.260Z,2.50
2023-11-02T09:12:04.633Z,2.85
2023-11-02T09:14:32.160Z,2.67
2023-11-02T09:16:59.646Z,2.88
2023-11-02T09:19:29.727Z,2.78
2023-11-02T09:21:57.134Z,3.42
2023-11-02T09:24:24.313Z,2.85
2023-11-02T09:26:52.533Z,3.00
2023-11-02T09:29:19.665Z,3.17
2023-11-02T09:31:55.904Z,2.95
2023-11-02T09:34:29.817Z,2.92
2023-11-02T09:36:56.944Z,2.83
2023-11-02T09:39:24.241Z,2.90
2023-11-02T09:41:51.630Z,2.78
2023-11-02T09:44:19.231Z,2.72
2023-11-02T09:46:46.477Z,3.05
2023-11-02T09:49:13.931Z,3.13
2023-11-02T09:51:42.838Z,3.40
2023-11-02T09:54:10.561Z,3.00
2023-11-02T09:56:38.212Z,2.35
2023-11-02T09:59:06.456Z,3.20
2023-11-02T10:01:34.130Z,2.78
2023-11-02T10:04:01.537Z,2.75
2023-11-02T10:06:29.081Z,2.20
2023-11-02T10:08:56.396Z,2.47
2023-11-02T10:11:26.367Z,2.97
2023-11-02T10:13:55.312Z,2.60
2023-11-02T10:16:24.625Z,2.87
2023-11-02T10:18:52.376Z,2.67
2023-11-02T10:21:22.895Z,2.47
2023-11-02T10:23:51.805Z,3.20
2023-11-02T10:26:19.971Z,3.08
2023-11-02T10:28:47.998Z,2.53
2023-11-02T10:31:19.998Z,2.92
2023-11-02T10:33:52.046Z,2.92
2023-11-02T10:36:21.275Z,2.65
2023-11-02T10:38:48.372Z,2.15
2023-11-02T10:41:19.779Z,2.65
2023-11-02T10:43:50.580Z,2.35
2023-11-02T10:46:18.339Z,3.05
2023-11-02T10:49:07.403Z,2.25
2023-11-02T10:51:41.002Z,3.30
2023-11-02T10:54:30.356Z,2.33
2023-11-02T10:57:17.729Z,2.67
2023-11-02T10:59:45.886Z,2.47
2023-11-02T11:02:18.996Z,2.60
2023-11-02T11:04:50.525Z,3.35
2023-11-02T11:07:18.946Z,3.05
2023-11-02T11:09:50.797Z,3.08
2023-11-02T11:12:19.295Z,2.13
2023-11-02T11:14:49.722Z,2.55
2023-11-02T11:17:16.866Z,3.10
2023-11-02T11:19:44.188Z,2.45
2023-11-02T11:22:16.918Z,2.08
2023-11-02T11:24:55.185Z,2.55
2023-11-02T11:27:32.919Z,2.35
2023-11-02T11:30:04.961Z,2.92
2023-11-02T11:32:37.618Z,2.60
2023-11-02T11:35:11.334Z,2.72
2023-11-02T11:37:46.875Z,2.78
2023-11-02T11:40:26.279Z,3.47
2023-11-02T11:42:53.818Z,3.53
2023-11-02T11:45:38.344Z,3.33
2023-11-02T11:48:08.928Z,3.35
2023-11-02T11:50:37.279Z,3.80
2023-11-02T11:53:12.094Z,4.18
2023-11-02T11:55:40.124Z,3.00
2023-11-02T11:58:09.981Z,3.30
2023-11-02T12:00:58.792Z,2.72
2023-11-02T12:03:44.716Z,2.40
2023-11-02T12:06:14.408Z,2.40
2023-11-02T12:11:23.263Z,2.63
2023-11-02T12:14:01.637Z,2.08
2023-11-02T12:16:33.219Z,2.42
2023-11-02T12:19:01.157Z,2.40
2023-11-02T12:21:28.672Z,2.28
2023-11-02T12:23:56.789Z,2.10
2023-11-02T12:26:29.060Z,2.50
2023-11-02T12:28:59.247Z,2.40
2023-11-02T12:31:32.159Z,1.85
2023-11-02T12:34:04.927Z,2.03
2023-11-02T12:36:35.613Z,1.75
2023-11-02T12:39:12.870Z,1.45
2023-11-02T12:41:40.572Z,0.90
2023-11-02T12:44:15.389Z,0.93
2023-11-02T12:46:45.335Z,0.90
2023-11-02T12:49:19.700Z,0.68
2023-11-02T12:52:03.340Z,0.90
2023-11-02T12:54:33.248Z,1.30
2023-11-02T12:59:37.370Z,0.80
2023-11-02T13:02:07.148Z,1.20
2023-11-02T13:07:23.956Z,1.00
2023-11-02T13:10:11.893Z,0.70
2023-11-02T13:12:41.183Z,0.80
2023-11-02T13:15:10.746Z,0.57
2023-11-02T13:17:58.406Z,0.70
2023-11-02T13:20:36.779Z,1.10
2023-11-02T13:23:08.752Z,0.70
2023-11-02T13:25:36.118Z,0.93
2023-11-02T13:28:07.661Z,0.80
2023-11-02T13:30:35.836Z,0.98
2023-11-02T13:33:05.180Z,1.20
2023-11-02T13:35:32.617Z,0.68
2023-11-02T13:37:59.799Z,1.00
2023-11-02T13:40:36.516Z,0.88
2023-11-02T13:43:03.909Z,0.95
2023-11-02T13:45:33.090Z,0.90
2023-11-02T13:48:11.444Z,1.00
2023-11-02T13:50:38.720Z,0.93
2023-11-02T13:53:06.720Z,0.75
2023-11-02T13:55:33.897Z,0.73
2023-11-02T13:58:02.441Z,1.13
2023-11-02T14:00:29.812Z,0.90
2023-11-02T14:02:57.152Z,0.95
2023-11-02T14:05:24.613Z,1.00
2023-11-02T14:07:52.190Z,0.70
2023-11-02T14:10:19.779Z,0.88
2023-11-02T14:12:48.240Z,0.70
2023-11-02T14:15:16.047Z,0.90
2023-11-02T14:17:47.242Z,0.70
2023-11-02T14:20:15.123Z,0.90
2023-11-02T14:22:43.889Z,1.05
2023-11-02T14:25:11.130Z,0.93
2023-11-02T14:27:38.431Z,0.95
2023-11-02T14:30:06.407Z,0.88
2023-11-02T14:32:33.530Z,0.80
2023-11-02T14:35:00.752Z,0.90
2023-11-02T14:37:28.237Z,0.80
2023-11-02T14:39:56.595Z,0.88
2023-11-02T14:42:25.249Z,0.80
2023-11-02T14:44:54.443Z,0.60
2023-11-02T14:47:23.351Z,0.80
2023-11-02T14:49:53.319Z,0.73
2023-11-02T14:52:20.605Z,1.02
2023-11-02T14:54:55.417Z,1.10
2023-11-02T14:57:28.658Z,0.90
2023-11-02T14:59:55.925Z,1.55
2023-11-02T15:02:26.402Z,1.55
2023-11-02T15:04:57.330Z,1.13
2023-11-02T15:07:26.913Z,1.15
2023-11-02T15:09:54.208Z,1.00
2023-11-02T15:12:25.332Z,1.10
2023-11-02T15:14:52.684Z,1.10
2023-11-02T15:17:19.923Z,1.20
2023-11-02T15:19:48.633Z,1.40
2023-11-02T15:22:15.777Z,1.45
2023-11-02T15:24:43.044Z,1.60
2023-11-02T15:27:10.150Z,1.52
2023-11-02T15:29:37.722Z,1.65
2023-11-02T15:32:06.361Z,1.33
2023-11-02T15:34:34.139Z,1.20
2023-11-02T15:37:01.195Z,1.45
2023-11-02T15:39:31.098Z,1.50
2023-11-02T15:41:59.132Z,1.55
2023-11-02T15:44:26.691Z,2.25
2023-11-02T15:46:54.081Z,1.65
2023-11-02T15:49:21.322Z,1.85
2023-11-02T15:51:48.673Z,1.48
2023-11-02T15:54:17.646Z,1.70
2023-11-02T15:56:44.921Z,1.50
2023-11-02T15:59:14.869Z,1.58
2023-11-02T16:01:42.000Z,2.08
2023-11-02T16:04:09.397Z,1.92
2023-11-02T16:06:36.875Z,1.77
2023-11-02T16:09:04.259Z,2.53
2023-11-02T16:11:31.628Z,1.88
2023-11-02T16:14:04.322Z,2.05
2023-11-02T16:16:32.050Z,2.25
2023-11-02T16:18:59.649Z,2.47
2023-11-02T16:21:29.781Z,1.80
2023-11-02T16:23:57.455Z,1.98
2023-11-02T16:26:26.235Z,2.22
2023-11-02T16:28:54.698Z,3.27
2023-11-02T16:31:26.100Z,2.63
2023-11-02T16:33:54.425Z,2.35
2023-11-02T16:36:51.978Z,2.33
2023-11-02T16:39:20.916Z,2.70
2023-11-02T16:41:51.154Z,3.03
2023-11-02T16:44:23.951Z,2.30
2023-11-02T16:46:52.867Z,2.70
2023-11-02T16:49:23.819Z,2.80
2023-11-02T16:51:51.489Z,2.10
2023-11-02T16:54:21.476Z,2.40
2023-11-02T16:56:48.751Z,2.50
2023-11-02T16:59:17.639Z,1.80
2023-11-02T17:01:44.952Z,2.77
2023-11-02T17:04:12.246Z,2.17
2023-11-02T17:06:40.618Z,2.13
2023-11-02T17:09:10.331Z,3.30
2023-11-02T17:11:38.978Z,2.97
2023-11-02T17:14:07.566Z,2.65
2023-11-02T17:16:37.486Z,3.60
2023-11-02T17:19:04.983Z,3.03
2023-11-02T17:21:33.968Z,2.65
2023-11-02T17:24:01.966Z,2.58
2023-11-02T17:26:29.307Z,3.42
2023-11-02T17:28:56.738Z,3.13
2023-11-02T17:31:23.998Z,2.75
2023-11-02T17:33:53.815Z,2.30
2023-11-02T17:38:48.546Z,2.65
2023-11-02T17:41:17.945Z,3.08
2023-11-02T17:43:46.157Z,2.72
2023-11-02T17:46:17.645Z,3.00
2023-11-02T17:48:45.248Z,2.25
2023-11-02T17:51:14.550Z,2.50
2023-11-02T17:53:41.834Z,2.28
2023-11-02T17:56:09.257Z,2.78
2023-11-02T17:58:36.792Z,2.35
2023-11-02T18:01:06.725Z,2.30
2023-11-02T18:03:34.478Z,2.30
2023-11-02T18:06:01.884Z,2.30
2023-11-02T18:08:29.312Z,2.60
2023-11-02T18:10:57.596Z,2.45
2023-11-02T18:13:24.996Z,2.63
2023-11-02T18:15:53.567Z,3.05
2023-11-02T18:18:30.268Z,3.22
2023-11-02T18:20:58.722Z,2.88
2023-11-02T18:23:27.308Z,2.83
2023-11-02T18:25:55.417Z,3.65
2023-11-02T18:28:22.623Z,4.72
2023-11-02T18:30:49.779Z,3.67
2023-11-02T18:33:17.027Z,3.78
2023-11-02T18:35:44.294Z,3.63
2023-11-02T18:38:13.769Z,3.38
2023-11-02T18:40:47.194Z,2.90
2023-11-02T18:43:15.691Z,3.70
2023-11-02T18:45:43.000Z,3.22
2023-11-02T18:48:11.129Z,2.90
2023-11-02T18:50:38.453Z,3.78
2023-11-02T18:53:08.655Z,2.75
2023-11-02T18:55:40.328Z,2.50
2023-11-02T18:58:13.539Z,3.35
2023-11-02T19:00:42.379Z,2.63
2023-11-02T19:03:10.148Z,3.33
2023-11-02T19:05:39.388Z,3.03
2023-11-02T19:08:10.480Z,3.03
2023-11-02T19:10:38.118Z,2.67
2023-11-02T19:13:05.484Z,3.03
2023-11-02T19:15:34.061Z,3.28
2023-11-02T19:18:17.550Z,3.25
2023-11-02T19:20:45.311Z,3.50
2023-11-02T19:23:13.599Z,2.85
2023-11-02T19:26:03.048Z,2.55
2023-11-02T19:28:55.904Z,3.25
2023-11-02T19:32:05.404Z,3.10
2023-11-02T19:34:32.690Z,3.58
2023-11-02T19:37:01.954Z,2.97
2023-11-02T19:39:30.222Z,3.17
2023-11-02T19:41:57.801Z,2.70
2023-11-02T19:44:24.999Z,2.90
2023-11-02T19:46:54.046Z,2.90
2023-11-02T19:49:23.073Z,2.38
2023-11-02T19:51:51.561Z,2.78
2023-11-02T19:54:19.528Z,2.75
2023-11-02T19:56:53.363Z,2.63
2023-11-02T19:59:30.778Z,2.55
2023-11-02T20:02:04.840Z,3.33
2023-11-02T20:04:32.959Z,3.22
2023-11-02T20:07:01.447Z,3.58
2023-11-02T20:09:29.817Z,3.53
2023-11-02T20:11:57.111Z,2.88
2023-11-02T20:14:27.114Z,2.70
2023-11-02T20:16:54.567Z,2.40
2023-11-02T20:19:26.020Z,2.40
2023-11-02T20:21:55.956Z,2.95
2023-11-02T20:24:23.935Z,2.45
2023-11-02T20:26:51.359Z,2.90
2023-11-02T20:29:52.263Z,2.47
2023-11-02T20:32:20.928Z,3.30
2023-11-02T20:34:51.411Z,3.40
2023-11-02T20:37:36.891Z,2.55
2023-11-02T20:40:05.123Z,2.72
2023-11-02T20:42:32.254Z,3.13
2023-11-02T20:45:00.520Z,3.70
2023-11-02T20:47:27.832Z,2.55
2023-11-02T20:49:55.021Z,3.50
2023-11-02T20:52:26.279Z,3.35
2023-11-02T20:54:54.318Z,3.45
2023-11-02T20:57:21.548Z,3.10
2023-11-02T20:59:48.961Z,2.95
2023-11-02T21:02:16.305Z,2.85
2023-11-02T21:04:43.634Z,3.42
2023-11-02T21:07:14.859Z,3.72
2023-11-02T21:09:42.054Z,2.80
2023-11-02T21:12:10.945Z,2.60
2023-11-02T21:14:43.190Z,2.63
2023-11-02T21:17:10.839Z,2.50
2023-11-02T21:19:42.111Z,2.17
2023-11-02T21:22:12.400Z,2.67
2023-11-02T21:24:42.320Z,2.72
2023-11-02T21:27:11.582Z,2.63
2023-11-02T21:29:40.250Z,2.40
2023-11-02T21:32:08.066Z,2.42
2023-11-02T21:34:38.560Z,1.63
2023-11-02T21:37:05.970Z,2.13
2023-11-02T21:39:33.285Z,2.45
2023-11-02T21:42:00.701Z,1.90
2023-11-02T21:44:27.989Z,2.60
2023-11-02T21:46:55.452Z,2.00
2023-11-02T21:49:25.558Z,1.50
2023-11-02T21:51:53.862Z,2.00
2023-11-02T21:54:20.969Z,1.58
2023-11-02T21:56:48.668Z,1.67
2023-11-02T21:59:16.085Z,1.70
2023-11-02T22:01:46.353Z,1.83
2023-11-02T22:04:14.517Z,2.22
2023-11-02T22:06:48.303Z,1.70
2023-11-02T22:09:20.001Z,2.00
2023-11-02T22:11:47.159Z,2.35
2023-11-02T22:14:16.097Z,1.90
2023-11-02T22:16:43.281Z,1.90
2023-11-02T22:19:10.779Z,2.22
2023-11-02T22:21:41.051Z,2.00
2023-11-02T22:24:08.710Z,2.33
2023-11-02T22:26:36.013Z,2.13
2023-11-02T22:29:03.339Z,1.77
2023-11-02T22:31:30.952Z,1.73
2023-11-02T22:33:58.758Z,2.10
2023-11-02T22:36:29.251Z,1.48
2023-11-02T22:38:59.630Z,2.20
2023-11-02T22:41:27.723Z,1.52
2023-11-02T22:43:54.870Z,1.92
2023-11-02T22:46:23.208Z,2.10
2023-11-02T22:48:54.596Z,1.55
2023-11-02T22:51:24.596Z,1.25
2023-11-02T22:53:53.001Z,1.50
2023-11-02T22:56:20.557Z,1.80
2023-11-02T22:58:50.675Z,1.50
2023-11-02T23:01:21.294Z,1.88
2023-11-02T23:03:52.852Z,1.65
2023-11-02T23:06:20.299Z,1.67
2023-11-02T23:08:47.637Z,1.40
2023-11-02T23:11:17.911Z,1.50
2023-11-02T23:13:45.283Z,1.42
2023-11-02T23:16:13.449Z,1.27
2023-11-02T23:18:43.288Z,1.40
2023-11-02T23:23:41.626Z,1.23
2023-11-02T23:26:09.808Z,1.38
2023-11-02T23:28:37.322Z,1.60
2023-11-02T23:31:05.213Z,1.90
2023-11-02T23:33:33.605Z,1.55
2023-11-02T23:36:01.099Z,1.50
2023-11-02T23:38:28.482Z,1.35
2023-11-02T23:40:55.696Z,1.60
2023-11-02T23:43:23.912Z,1.25
2023-11-02T23:45:51.448Z,1.63
2023-11-02T23:48:18.974Z,1.23
2023-11-02T23:50:46.423Z,1.52
2023-11-02T23:53:14.592Z,1.42
2023-11-02T23:55:41.755Z,1.10
2023-11-02T23:58:09.108Z,1.50
